Time;durP1;ratioP1;P1;durP2;ratioP2;P2;SDS_P1;SDS_P2;PMS_P1;PMS_P2;Temp;Humidity;BMP_temperature;BMP_pressure;BME280_temperature;BME280_humidity;BME280_pressure;Samples;Min_cycle;Max_cycle;Signal;HPM_P1;HPM_P2
2022/09/08 00:00:38;;;;;;;26.63;25.03;;;;;;;;;;5117158;28;20935;-78
2022/09/08 00:03:06;;;;;;;27.23;25.53;;;;;;;;;;5116275;28;20488;-78
2022/09/08 00:05:35;;;;;;;27.30;25.37;;;;;;;;;;5116946;28;20430;-78
2022/09/08 00:08:03;;;;;;;26.80;25.10;;;;;;;;;;5117284;28;20825;-78
2022/09/08 00:10:32;;;;;;;28.17;26.47;;;;;;;;;;5116816;28;20433;-77
2022/09/08 00:13:00;;;;;;;26.37;24.80;;;;;;;;;;5115741;28;20400;-78
2022/09/08 00:15:27;;;;;;;26.33;24.70;;;;;;;;;;5117425;28;20421;-78
2022/09/08 00:17:56;;;;;;;29.40;27.50;;;;;;;;;;5116850;28;20952;-78
2022/09/08 00:20:24;;;;;;;27.60;25.70;;;;;;;;;;5117039;28;20450;-78
2022/09/08 00:22:51;;;;;;;27.27;25.50;;;;;;;;;;5116324;28;20944;-78
2022/09/08 00:25:18;;;;;;;28.17;26.47;;;;;;;;;;5116581;28;20428;-77
2022/09/08 00:27:47;;;;;;;28.20;26.50;;;;;;;;;;5116594;28;20795;-78
2022/09/08 00:30:14;;;;;;;28.10;26.40;;;;;;;;;;5116743;28;20466;-77
2022/09/08 00:32:42;;;;;;;28.73;26.97;;;;;;;;;;5116108;28;20455;-78
2022/09/08 00:35:14;;;;;;;27.03;25.33;;;;;;;;;;5116548;28;20467;-79
2022/09/08 00:37:41;;;;;;;27.20;25.60;;;;;;;;;;5116580;28;20493;-78
2022/09/08 00:40:09;;;;;;;28.57;26.77;;;;;;;;;;5116285;28;20452;-78
2022/09/08 00:42:37;;;;;;;30.57;28.57;;;;;;;;;;5115993;28;20902;-78
2022/09/08 00:45:04;;;;;;;28.77;26.97;;;;;;;;;;5116541;28;20802;-78
2022/09/08 00:47:35;;;;;;;27.87;26.20;;;;;;;;;;5116049;28;20426;-78
2022/09/08 00:50:04;;;;;;;30.90;28.97;;;;;;;;;;5116266;28;20463;-77
2022/09/08 00:52:36;;;;;;;31.00;28.77;;;;;;;;;;5116147;28;20445;-78
2022/09/08 00:55:03;;;;;;;28.93;27.13;;;;;;;;;;5116062;28;20448;-78
2022/09/08 00:57:30;;;;;;;29.77;27.80;;;;;;;;;;5116165;28;20428;-78
2022/09/08 00:59:58;;;;;;;31.57;29.27;;;;;;;;;;5115936;28;20466;-78
2022/09/08 01:02:27;;;;;;;29.13;27.33;;;;;;;;;;5115361;28;20970;-78
2022/09/08 01:04:56;;;;;;;28.33;26.50;;;;;;;;;;5116387;28;20441;-78
2022/09/08 01:13:04;;;;;;;29.23;27.53;;;;;;;;;;5115740;28;20394;-78
2022/09/08 01:15:31;;;;;;;29.63;27.80;;;;;;;;;;5115810;28;20426;-78
2022/09/08 01:17:59;;;;;;;27.37;25.67;;;;;;;;;;5116245;28;20427;-78
2022/09/08 01:20:31;;;;;;;29.60;27.57;;;;;;;;;;5116042;28;20455;-78
2022/09/08 01:23:13;;;;;;;29.60;27.70;;;;;;;;;;5115215;28;21170;-78
2022/09/08 01:25:53;;;;;;;28.73;26.77;;;;;;;;;;5113293;28;20822;-78
2022/09/08 01:28:24;;;;;;;29.27;27.47;;;;;;;;;;5115685;28;20440;-78
2022/09/08 01:30:52;;;;;;;29.50;27.60;;;;;;;;;;5115081;28;20398;-79
2022/09/08 01:33:21;;;;;;;28.17;26.37;;;;;;;;;;5115456;28;20412;-78
2022/09/08 01:35:48;;;;;;;28.27;26.47;;;;;;;;;;5115865;28;20421;-78
2022/09/08 01:38:16;;;;;;;28.67;26.77;;;;;;;;;;5115825;28;20445;-78
2022/09/08 01:40:43;;;;;;;27.47;25.77;;;;;;;;;;5115349;28;20447;-78
2022/09/08 01:43:11;;;;;;;29.23;27.33;;;;;;;;;;5115087;28;20461;-78
2022/09/08 01:45:41;;;;;;;26.83;25.23;;;;;;;;;;5115680;28;20428;-78
2022/09/08 01:48:09;;;;;;;28.87;27.07;;;;;;;;;;5115161;28;20434;-78
2022/09/08 01:50:37;;;;;;;28.50;26.80;;;;;;;;;;5115658;28;20433;-78
2022/09/08 01:53:05;;;;;;;28.60;26.80;;;;;;;;;;5114589;28;20428;-78
2022/09/08 01:55:32;;;;;;;29.40;27.60;;;;;;;;;;5115245;28;20493;-78
2022/09/08 01:58:00;;;;;;;27.37;25.57;;;;;;;;;;5115167;28;20441;-78
2022/09/08 02:00:27;;;;;;;28.10;26.40;;;;;;;;;;5114991;28;20416;-78
2022/09/08 02:02:56;;;;;;;28.17;26.27;;;;;;;;;;5113897;28;20805;-77
2022/09/08 02:05:23;;;;;;;27.63;25.83;;;;;;;;;;5114438;28;20930;-78
2022/09/08 02:07:50;;;;;;;28.87;27.17;;;;;;;;;;5114455;28;20427;-77
2022/09/08 02:10:18;;;;;;;30.70;28.20;;;;;;;;;;5114384;28;20470;-77
2022/09/08 02:12:45;;;;;;;28.10;26.20;;;;;;;;;;5113972;28;20429;-78
2022/09/08 02:15:13;;;;;;;29.97;27.93;;;;;;;;;;5114257;28;20455;-77
2022/09/08 02:17:40;;;;;;;29.50;27.80;;;;;;;;;;5114565;28;20431;-78
2022/09/08 02:20:09;;;;;;;28.63;26.73;;;;;;;;;;5113916;28;20487;-78
2022/09/08 02:22:36;;;;;;;28.97;27.20;;;;;;;;;;5113847;28;20457;-77
2022/09/08 02:25:04;;;;;;;28.50;26.80;;;;;;;;;;5114289;28;20446;-78
2022/09/08 02:27:32;;;;;;;28.90;27.00;;;;;;;;;;5114685;28;20416;-77
2022/09/08 02:29:59;;;;;;;28.20;26.37;;;;;;;;;;5114197;28;20449;-78
2022/09/08 02:32:27;;;;;;;28.07;26.37;;;;;;;;;;5113876;28;20461;-77
2022/09/08 02:34:54;;;;;;;28.70;27.00;;;;;;;;;;5114642;28;20474;-78
2022/09/08 02:37:23;;;;;;;28.80;27.00;;;;;;;;;;5118746;28;20483;-78
2022/09/08 02:39:50;;;;;;;28.93;26.90;;;;;;;;;;5118605;28;20470;-78
2022/09/08 02:42:17;;;;;;;29.23;27.43;;;;;;;;;;5118256;28;20456;-78
2022/09/08 02:44:45;;;;;;;29.90;27.90;;;;;;;;;;5118284;28;20450;-78
2022/09/08 02:47:12;;;;;;;30.60;28.50;;;;;;;;;;5117785;28;20408;-77
2022/09/08 02:49:40;;;;;;;28.97;26.97;;;;;;;;;;5118363;28;20468;-77
2022/09/08 02:52:08;;;;;;;28.43;26.73;;;;;;;;;;5117881;28;20430;-77
2022/09/08 02:54:37;;;;;;;29.67;27.33;;;;;;;;;;5117981;28;20539;-78
2022/09/08 02:57:05;;;;;;;27.40;25.80;;;;;;;;;;5118569;28;20464;-78
2022/09/08 02:59:32;;;;;;;27.60;25.90;;;;;;;;;;5118192;28;20432;-78
2022/09/08 03:01:59;;;;;;;28.03;26.23;;;;;;;;;;5117696;28;20415;-78
2022/09/08 03:04:27;;;;;;;30.07;28.17;;;;;;;;;;5118566;28;20449;-78
2022/09/08 03:06:55;;;;;;;26.83;25.17;;;;;;;;;;5118296;28;20452;-78
2022/09/08 03:09:22;;;;;;;27.30;25.70;;;;;;;;;;5118093;28;20973;-77
2022/09/08 03:11:50;;;;;;;27.10;25.50;;;;;;;;;;5117715;28;20420;-78
2022/09/08 03:14:18;;;;;;;26.97;25.33;;;;;;;;;;5118081;28;20993;-78
2022/09/08 03:16:46;;;;;;;26.90;25.30;;;;;;;;;;5118095;28;20420;-78
2022/09/08 03:19:13;;;;;;;26.93;25.33;;;;;;;;;;5118665;28;20479;-78
2022/09/08 03:21:41;;;;;;;27.20;25.60;;;;;;;;;;5117932;28;20429;-78
2022/09/08 03:24:08;;;;;;;27.67;25.87;;;;;;;;;;5118339;28;20431;-78
2022/09/08 03:26:35;;;;;;;28.90;27.10;;;;;;;;;;5117726;28;20448;-78
2022/09/08 03:29:06;;;;;;;28.20;26.60;;;;;;;;;;5117743;28;20447;-78
2022/09/08 03:31:35;;;;;;;27.80;26.10;;;;;;;;;;5117667;28;20480;-78
2022/09/08 03:34:02;;;;;;;26.47;24.77;;;;;;;;;;5117899;28;20523;-78
2022/09/08 03:36:30;;;;;;;27.33;25.60;;;;;;;;;;5117559;28;20489;-79
2022/09/08 03:38:57;;;;;;;27.03;25.33;;;;;;;;;;5118019;28;20450;-77
2022/09/08 03:41:24;;;;;;;26.60;25.07;;;;;;;;;;5117499;28;20421;-78
2022/09/08 03:43:52;;;;;;;26.33;24.73;;;;;;;;;;5117674;28;20458;-78
2022/09/08 03:46:21;;;;;;;26.93;25.30;;;;;;;;;;5117009;28;20540;-78
2022/09/08 03:48:48;;;;;;;26.03;24.43;;;;;;;;;;5117174;28;20467;-78
2022/09/08 03:51:18;;;;;;;25.93;24.53;;;;;;;;;;5117517;28;20450;-77
2022/09/08 03:53:46;;;;;;;27.00;25.37;;;;;;;;;;5117685;28;20447;-78
2022/09/08 03:56:14;;;;;;;26.90;25.23;;;;;;;;;;5117332;28;20975;-77
2022/09/08 03:58:41;;;;;;;26.80;25.07;;;;;;;;;;5117562;28;20465;-78
2022/09/08 04:01:09;;;;;;;24.57;23.13;;;;;;;;;;5117206;28;20447;-78
2022/09/08 04:03:39;;;;;;;25.43;23.83;;;;;;;;;;5117257;28;20416;-78
2022/09/08 04:06:06;;;;;;;26.47;24.87;;;;;;;;;;5117847;28;20437;-78
2022/09/08 04:08:34;;;;;;;25.40;23.90;;;;;;;;;;5117314;28;20463;-78
2022/09/08 04:11:01;;;;;;;26.37;24.73;;;;;;;;;;5117233;28;20465;-78
2022/09/08 04:13:29;;;;;;;26.50;25.00;;;;;;;;;;5117317;28;20957;-77
2022/09/08 04:15:56;;;;;;;26.13;24.70;;;;;;;;;;5117032;28;20453;-77
2022/09/08 04:18:23;;;;;;;25.30;23.90;;;;;;;;;;5117297;28;20453;-77
2022/09/08 04:20:59;;;;;;;26.83;25.27;;;;;;;;;;5116568;28;20448;-78
2022/09/08 04:23:26;;;;;;;27.50;25.80;;;;;;;;;;5117490;27;20438;-78
2022/09/08 04:25:57;;;;;;;25.10;23.70;;;;;;;;;;5117380;28;20441;-78
2022/09/08 04:28:24;;;;;;;24.83;23.43;;;;;;;;;;5117361;28;20440;-78
2022/09/08 04:30:52;;;;;;;26.40;24.90;;;;;;;;;;5116605;28;20867;-78
2022/09/08 04:33:19;;;;;;;26.17;24.67;;;;;;;;;;5116953;28;20421;-78
2022/09/08 04:35:47;;;;;;;27.10;25.30;;;;;;;;;;5117348;28;20486;-78
2022/09/08 04:38:16;;;;;;;27.30;25.50;;;;;;;;;;5116836;28;20462;-77
2022/09/08 04:40:43;;;;;;;26.57;24.97;;;;;;;;;;5116262;28;20419;-78
2022/09/08 04:43:11;;;;;;;27.10;25.20;;;;;;;;;;5116517;28;20426;-78
2022/09/08 04:45:38;;;;;;;27.70;26.10;;;;;;;;;;5116410;28;20429;-77
2022/09/08 04:48:06;;;;;;;26.40;24.77;;;;;;;;;;5116590;28;20811;-78
2022/09/08 04:50:33;;;;;;;25.40;23.90;;;;;;;;;;5116870;28;20464;-78
2022/09/08 04:53:01;;;;;;;26.20;24.60;;;;;;;;;;5116458;28;20436;-78
2022/09/08 04:55:30;;;;;;;25.73;24.20;;;;;;;;;;5117243;28;20875;-78
2022/09/08 04:57:58;;;;;;;26.63;25.00;;;;;;;;;;5116943;28;20765;-78
2022/09/08 05:00:26;;;;;;;25.37;23.97;;;;;;;;;;5117129;28;20497;-77
2022/09/08 05:02:56;;;;;;;25.47;23.77;;;;;;;;;;5117020;28;20462;-77
2022/09/08 05:05:23;;;;;;;25.30;23.90;;;;;;;;;;5117151;28;20429;-78
2022/09/08 05:07:51;;;;;;;25.63;24.20;;;;;;;;;;5117431;28;20445;-78
2022/09/08 05:10:18;;;;;;;25.30;23.60;;;;;;;;;;5117373;28;20514;-78
2022/09/08 05:12:47;;;;;;;26.37;24.77;;;;;;;;;;5116711;28;20940;-78
2022/09/08 05:15:15;;;;;;;25.97;24.47;;;;;;;;;;5115733;28;20492;-77
2022/09/08 05:17:42;;;;;;;27.00;25.10;;;;;;;;;;5115934;28;20449;-77
2022/09/08 05:20:10;;;;;;;26.60;25.00;;;;;;;;;;5115842;28;20462;-75
2022/09/08 05:22:37;;;;;;;27.40;25.53;;;;;;;;;;5113799;28;20504;-75
2022/09/08 05:25:05;;;;;;;27.40;25.80;;;;;;;;;;5114047;28;20423;-75
2022/09/08 05:27:33;;;;;;;26.70;25.10;;;;;;;;;;5113820;28;20419;-75
2022/09/08 05:30:03;;;;;;;26.93;25.23;;;;;;;;;;5113936;28;20469;-75
2022/09/08 05:32:30;;;;;;;27.90;25.80;;;;;;;;;;5113626;28;20467;-75
2022/09/08 05:34:57;;;;;;;28.40;26.70;;;;;;;;;;5113839;28;20481;-76
2022/09/08 05:37:28;;;;;;;26.50;24.67;;;;;;;;;;5113601;28;20446;-76
2022/09/08 05:39:55;;;;;;;27.60;25.80;;;;;;;;;;5112938;28;20520;-76
2022/09/08 05:42:22;;;;;;;28.50;26.40;;;;;;;;;;5113187;28;20445;-75
2022/09/08 05:44:50;;;;;;;28.63;26.90;;;;;;;;;;5113442;28;20418;-76
2022/09/08 05:47:18;;;;;;;28.00;26.20;;;;;;;;;;5113952;28;20814;-75
2022/09/08 05:49:46;;;;;;;27.57;25.87;;;;;;;;;;5113712;28;20500;-76
2022/09/08 05:52:14;;;;;;;27.10;25.40;;;;;;;;;;5112597;28;20476;-75
2022/09/08 05:54:41;;;;;;;28.80;26.70;;;;;;;;;;5112461;28;20453;-76
2022/09/08 05:57:09;;;;;;;27.67;25.60;;;;;;;;;;5112801;28;20419;-76
2022/09/08 05:59:36;;;;;;;28.80;26.80;;;;;;;;;;5113005;28;20842;-75
2022/09/08 06:02:03;;;;;;;28.33;26.40;;;;;;;;;;5112902;28;20466;-77
2022/09/08 06:04:32;;;;;;;27.73;25.70;;;;;;;;;;5113865;28;20421;-80
2022/09/08 06:07:00;;;;;;;28.20;25.80;;;;;;;;;;5113919;28;20441;-75
2022/09/08 06:09:27;;;;;;;28.30;26.33;;;;;;;;;;5113013;28;20468;-75
2022/09/08 06:11:54;;;;;;;27.07;25.37;;;;;;;;;;5101543;28;20449;-76
2022/09/08 06:14:22;;;;;;;28.17;26.47;;;;;;;;;;5113282;28;20418;-76
2022/09/08 06:16:50;;;;;;;27.63;25.93;;;;;;;;;;5113282;28;20451;-75
2022/09/08 06:19:17;;;;;;;29.53;27.47;;;;;;;;;;5112278;28;20499;-76
2022/09/08 06:21:46;;;;;;;29.20;27.30;;;;;;;;;;5112794;28;20864;-76
2022/09/08 06:24:14;;;;;;;29.70;27.57;;;;;;;;;;5112735;28;20449;-75
2022/09/08 06:26:54;;;;;;;29.80;27.90;;;;;;;;;;5113012;28;20862;-76
2022/09/08 06:29:27;;;;;;;30.87;28.67;;;;;;;;;;5113250;28;20497;-76
2022/09/08 06:31:57;;;;;;;29.63;27.73;;;;;;;;;;5112184;28;20522;-76
2022/09/08 06:34:27;;;;;;;30.47;28.40;;;;;;;;;;5113028;28;20504;-76
2022/09/08 06:36:57;;;;;;;31.23;29.13;;;;;;;;;;5111710;28;20564;-76
2022/09/08 06:39:26;;;;;;;32.00;29.50;;;;;;;;;;5112102;28;20988;-76
2022/09/08 06:41:57;;;;;;;32.53;30.13;;;;;;;;;;5112690;28;20485;-76
2022/09/08 06:44:27;;;;;;;30.80;28.70;;;;;;;;;;5113033;28;20394;-76
2022/09/08 06:46:55;;;;;;;32.20;30.10;;;;;;;;;;5112955;28;20931;-76
2022/09/08 06:49:24;;;;;;;32.90;30.60;;;;;;;;;;5113040;28;20475;-76
2022/09/08 06:51:58;;;;;;;33.30;31.00;;;;;;;;;;5112986;28;20508;-74
2022/09/08 06:54:46;;;;;;;32.87;30.13;;;;;;;;;;5113108;28;20913;-76
2022/09/08 06:57:28;;;;;;;33.63;31.20;;;;;;;;;;5106937;28;20832;-76
2022/09/08 07:00:01;;;;;;;32.80;30.50;;;;;;;;;;5111269;28;20974;-76
2022/09/08 07:02:46;;;;;;;33.03;30.17;;;;;;;;;;5112514;28;20446;-76
2022/09/08 07:05:21;;;;;;;34.73;32.23;;;;;;;;;;5094628;28;20463;-76
2022/09/08 07:07:51;;;;;;;32.27;29.77;;;;;;;;;;5098135;28;20417;-76
2022/09/08 07:10:21;;;;;;;33.97;31.47;;;;;;;;;;5092549;28;21037;-76
2022/09/08 07:12:54;;;;;;;31.70;29.60;;;;;;;;;;5092346;28;20490;-76
2022/09/08 07:15:27;;;;;;;31.80;29.47;;;;;;;;;;5092758;28;20483;-76
2022/09/08 07:17:58;;;;;;;32.87;30.57;;;;;;;;;;5092681;28;20764;-76
2022/09/08 07:20:27;;;;;;;32.50;30.30;;;;;;;;;;5092701;28;20464;-85
2022/09/08 07:22:57;;;;;;;32.20;29.90;;;;;;;;;;5096268;28;20418;-82
2022/09/08 07:25:27;;;;;;;31.77;29.63;;;;;;;;;;5098567;28;20807;-81
2022/09/08 07:27:59;;;;;;;32.60;30.10;;;;;;;;;;5099617;28;20435;-84
2022/09/08 07:30:28;;;;;;;33.27;30.93;;;;;;;;;;5098422;28;20434;-82
2022/09/08 07:32:59;;;;;;;32.30;30.00;;;;;;;;;;5095722;28;20538;-75
2022/09/08 07:35:30;;;;;;;32.60;30.10;;;;;;;;;;5094934;28;20532;-76
2022/09/08 07:38:03;;;;;;;32.90;30.47;;;;;;;;;;5095798;28;20413;-76
2022/09/08 07:40:37;;;;;;;30.40;28.40;;;;;;;;;;5095464;28;20550;-75
2022/09/08 07:43:10;;;;;;;30.17;28.00;;;;;;;;;;5095280;28;20426;-76
2022/09/08 07:45:41;;;;;;;27.53;25.67;;;;;;;;;;5095819;28;20438;-75
2022/09/08 07:48:12;;;;;;;26.57;24.77;;;;;;;;;;5095296;28;20459;-75
2022/09/08 07:50:57;;;;;;;23.60;22.30;;;;;;;;;;5095698;28;20410;-75
2022/09/08 07:53:40;;;;;;;22.70;21.40;;;;;;;;;;5095570;28;20421;-75
2022/09/08 07:56:12;;;;;;;23.43;21.90;;;;;;;;;;5095276;28;20960;-76
2022/09/08 07:58:44;;;;;;;22.23;21.00;;;;;;;;;;5095402;28;20535;-75
2022/09/08 08:01:16;;;;;;;23.83;22.30;;;;;;;;;;5094927;28;20430;-75
2022/09/08 08:03:51;;;;;;;22.20;20.53;;;;;;;;;;5095325;28;20450;-77
2022/09/08 08:06:21;;;;;;;23.70;22.30;;;;;;;;;;5095331;28;20468;-75
2022/09/08 08:08:54;;;;;;;23.20;21.80;;;;;;;;;;5115738;28;20474;-76
2022/09/08 08:11:26;;;;;;;26.73;24.93;;;;;;;;;;5114958;28;20449;-75
2022/09/08 08:14:02;;;;;;;25.60;23.87;;;;;;;;;;5114547;28;20439;-75
2022/09/08 08:16:37;;;;;;;26.83;25.03;;;;;;;;;;5113869;28;20523;-75
2022/09/08 08:19:12;;;;;;;28.10;26.20;;;;;;;;;;5115501;28;20484;-75
2022/09/08 08:21:42;;;;;;;30.00;28.13;;;;;;;;;;5114002;28;20479;-75
2022/09/08 08:24:18;;;;;;;32.03;29.83;;;;;;;;;;5115290;28;20769;-75
2022/09/08 08:26:51;;;;;;;32.70;30.60;;;;;;;;;;5115208;28;20418;-75
2022/09/08 08:29:36;;;;;;;32.67;30.57;;;;;;;;;;5115069;28;20978;-75
2022/09/08 08:32:07;;;;;;;33.90;31.50;;;;;;;;;;5114658;28;20420;-75
2022/09/08 08:34:38;;;;;;;35.57;33.00;;;;;;;;;;5114511;28;20475;-75
2022/09/08 08:37:07;;;;;;;35.90;33.50;;;;;;;;;;5114681;28;20470;-75
2022/09/08 08:39:36;;;;;;;34.90;32.40;;;;;;;;;;5114995;28;20455;-75
2022/09/08 08:42:10;;;;;;;35.60;32.67;;;;;;;;;;5114714;28;20534;-76
2022/09/08 08:44:44;;;;;;;36.00;33.60;;;;;;;;;;5114551;28;20427;-75
2022/09/08 08:47:30;;;;;;;36.83;34.33;;;;;;;;;;5114891;28;20509;-75
2022/09/08 08:50:12;;;;;;;35.73;33.27;;;;;;;;;;5114583;28;20460;-76
2022/09/08 08:52:47;;;;;;;35.47;33.07;;;;;;;;;;5114470;28;20846;-76
2022/09/08 08:55:25;;;;;;;34.03;31.77;;;;;;;;;;5114651;28;20443;-75
2022/09/08 08:57:59;;;;;;;35.00;32.60;;;;;;;;;;5114513;28;20564;-75
2022/09/08 09:00:29;;;;;;;35.73;33.30;;;;;;;;;;5114363;28;20426;-76
2022/09/08 09:03:18;;;;;;;36.13;33.40;;;;;;;;;;5113882;28;20984;-75
2022/09/08 09:06:13;;;;;;;35.97;33.57;;;;;;;;;;5114624;28;20791;-75
2022/09/08 09:08:58;;;;;;;34.93;32.63;;;;;;;;;;5114444;28;20469;-75
2022/09/08 09:11:33;;;;;;;33.73;31.30;;;;;;;;;;5100562;28;20446;-75
2022/09/08 09:14:19;;;;;;;34.37;32.17;;;;;;;;;;5114304;28;20453;-76
2022/09/08 09:16:59;;;;;;;35.47;33.07;;;;;;;;;;5114278;28;20909;-75
2022/09/08 09:19:37;;;;;;;33.37;30.87;;;;;;;;;;5114153;28;20428;-75
2022/09/08 09:22:13;;;;;;;32.90;30.70;;;;;;;;;;5113930;28;20455;-75
2022/09/08 09:24:48;;;;;;;35.30;33.00;;;;;;;;;;5114201;28;20402;-75
2022/09/08 09:27:18;;;;;;;33.23;31.13;;;;;;;;;;5114450;28;20690;-75
2022/09/08 09:29:51;;;;;;;32.20;29.60;;;;;;;;;;5113886;28;20437;-75
2022/09/08 09:32:37;;;;;;;30.80;28.80;;;;;;;;;;5113818;28;20511;-76
2022/09/08 09:35:16;;;;;;;32.73;30.63;;;;;;;;;;5114241;28;20921;-76
2022/09/08 09:37:59;;;;;;;33.37;30.93;;;;;;;;;;5113996;28;20477;-76
2022/09/08 09:40:35;;;;;;;33.83;31.30;;;;;;;;;;5113951;28;20440;-75
2022/09/08 09:43:14;;;;;;;34.80;32.33;;;;;;;;;;5113484;28;20415;-77
2022/09/08 09:45:52;;;;;;;34.57;32.20;;;;;;;;;;5113084;28;20425;-76
2022/09/08 09:48:53;;;;;;;35.10;32.70;;;;;;;;;;5113892;28;20468;-76
2022/09/08 09:51:29;;;;;;;33.23;31.13;;;;;;;;;;5030422;28;20427;-76
2022/09/08 09:54:06;;;;;;;35.17;32.97;;;;;;;;;;5031149;28;20539;-76
2022/09/08 09:56:44;;;;;;;34.20;32.00;;;;;;;;;;5078516;28;20464;-75
2022/09/08 09:59:27;;;;;;;35.70;33.27;;;;;;;;;;5113696;28;20466;-79
2022/09/08 10:01:59;;;;;;;32.70;30.60;;;;;;;;;;5113139;28;20461;-75
2022/09/08 10:04:40;;;;;;;34.00;31.70;;;;;;;;;;5113247;28;20427;-75
2022/09/08 10:07:13;;;;;;;33.93;31.83;;;;;;;;;;5113597;28;20462;-77
2022/09/08 10:09:57;;;;;;;34.20;32.10;;;;;;;;;;5113200;28;20444;-75
2022/09/08 10:12:42;;;;;;;34.20;32.00;;;;;;;;;;5112971;28;20423;-75
2022/09/08 10:15:29;;;;;;;34.97;32.47;;;;;;;;;;5112211;28;20803;-75
2022/09/08 10:18:23;;;;;;;33.10;31.00;;;;;;;;;;5113444;28;20484;-75
2022/09/08 10:21:11;;;;;;;34.33;32.13;;;;;;;;;;5112933;28;20931;-76
2022/09/08 10:23:56;;;;;;;32.93;30.73;;;;;;;;;;5107055;28;20454;-75
2022/09/08 10:26:41;;;;;;;33.67;31.57;;;;;;;;;;5113141;28;21180;-75
2022/09/08 10:29:29;;;;;;;31.77;29.80;;;;;;;;;;5112548;28;20477;-75
2022/09/08 10:32:07;;;;;;;33.30;31.30;;;;;;;;;;5113005;28;20438;-75
2022/09/08 10:34:50;;;;;;;33.80;31.80;;;;;;;;;;5112725;28;20437;-75
2022/09/08 10:37:24;;;;;;;33.90;31.70;;;;;;;;;;5113158;28;20501;-76
2022/09/08 10:40:06;;;;;;;33.27;31.17;;;;;;;;;;5111885;28;20854;-75
2022/09/08 10:42:47;;;;;;;34.60;32.30;;;;;;;;;;5112932;28;20434;-75
2022/09/08 10:45:36;;;;;;;33.00;31.00;;;;;;;;;;5113130;28;20435;-74
2022/09/08 10:48:22;;;;;;;32.37;30.37;;;;;;;;;;5106434;28;20435;-75
2022/09/08 10:50:52;;;;;;;31.67;29.70;;;;;;;;;;5112644;28;20450;-74
2022/09/08 10:53:34;;;;;;;31.90;29.90;;;;;;;;;;5111880;28;20925;-74
2022/09/08 10:56:08;;;;;;;32.80;30.80;;;;;;;;;;5113789;28;20943;-75
2022/09/08 10:59:09;;;;;;;32.43;30.20;;;;;;;;;;5116700;28;20462;-75
2022/09/08 11:01:57;;;;;;;30.70;28.90;;;;;;;;;;5115995;28;20474;-76
2022/09/08 11:04:37;;;;;;;32.20;30.30;;;;;;;;;;5116683;28;20434;-75
2022/09/08 11:07:19;;;;;;;31.60;29.73;;;;;;;;;;5116617;28;20436;-75
2022/09/08 11:09:51;;;;;;;33.67;31.60;;;;;;;;;;5117016;28;20915;-75
2022/09/08 11:12:34;;;;;;;32.03;30.23;;;;;;;;;;5116174;28;20434;-75
2022/09/08 11:15:22;;;;;;;33.20;31.30;;;;;;;;;;5113786;28;20431;-75
2022/09/08 11:17:51;;;;;;;36.10;33.90;;;;;;;;;;5116349;28;20469;-74
2022/09/08 11:20:25;;;;;;;35.87;33.57;;;;;;;;;;5116595;28;20464;-75
2022/09/08 11:22:58;;;;;;;38.57;36.03;;;;;;;;;;5115516;28;20539;-75
2022/09/08 11:25:41;;;;;;;38.90;36.10;;;;;;;;;;5116590;28;20448;-76
2022/09/08 11:28:23;;;;;;;39.73;37.30;;;;;;;;;;5115914;28;20433;-74
2022/09/08 11:30:55;;;;;;;50.77;47.60;;;;;;;;;;5113669;28;20449;-76
2022/09/08 11:33:30;;;;;;;54.13;50.83;;;;;;;;;;5116433;28;20396;-75
2022/09/08 11:36:05;;;;;;;50.67;47.83;;;;;;;;;;5116091;28;20415;-75
2022/09/08 11:38:57;;;;;;;52.00;49.20;;;;;;;;;;5115314;28;20471;-75
2022/09/08 11:41:42;;;;;;;51.20;48.37;;;;;;;;;;5114410;28;20860;-75
2022/09/08 11:44:18;;;;;;;54.00;50.83;;;;;;;;;;5115731;28;20923;-75
2022/09/08 11:47:00;;;;;;;59.67;56.17;;;;;;;;;;5115579;28;20894;-77
2022/09/08 11:49:38;;;;;;;62.67;59.00;;;;;;;;;;5116284;28;20456;-75
2022/09/08 11:52:17;;;;;;;60.13;56.63;;;;;;;;;;5116055;28;20837;-75
2022/09/08 11:54:52;;;;;;;64.13;60.23;;;;;;;;;;5116481;28;20462;-76
2022/09/08 11:57:38;;;;;;;63.50;59.70;;;;;;;;;;5117139;28;20488;-75
2022/09/08 12:00:27;;;;;;;60.13;56.93;;;;;;;;;;5118351;28;20510;-75
2022/09/08 12:03:03;;;;;;;60.93;57.43;;;;;;;;;;5117759;28;20460;-76
2022/09/08 12:05:34;;;;;;;66.30;62.40;;;;;;;;;;5117222;27;20455;-76
2022/09/08 12:08:11;;;;;;;61.50;58.20;;;;;;;;;;5116144;28;20943;-76
2022/09/08 12:10:45;;;;;;;60.30;56.90;;;;;;;;;;5115371;28;20424;-75
2022/09/08 12:13:16;;;;;;;60.23;56.63;;;;;;;;;;5114896;28;20913;-76
2022/09/08 12:15:58;;;;;;;62.93;59.13;;;;;;;;;;5115482;28;20406;-76
2022/09/08 12:18:34;;;;;;;63.73;59.93;;;;;;;;;;5115025;28;20517;-76
2022/09/08 12:21:17;;;;;;;62.87;59.27;;;;;;;;;;5115098;28;20495;-74
2022/09/08 12:23:50;;;;;;;62.60;59.10;;;;;;;;;;5115595;28;20415;-75
2022/09/08 12:26:40;;;;;;;59.73;56.33;;;;;;;;;;5115472;28;20433;-75
2022/09/08 12:29:28;;;;;;;59.17;55.83;;;;;;;;;;5109838;28;20446;-75
2022/09/08 12:32:01;;;;;;;55.23;52.17;;;;;;;;;;5080768;28;21022;-75
2022/09/08 12:34:46;;;;;;;59.13;55.40;;;;;;;;;;5115177;28;20457;-74
2022/09/08 12:37:15;;;;;;;55.53;52.43;;;;;;;;;;5114277;28;20891;-75
2022/09/08 12:39:57;;;;;;;58.60;54.83;;;;;;;;;;5114768;28;20469;-75
2022/09/08 12:42:41;;;;;;;55.90;52.97;;;;;;;;;;5114388;28;20403;-75
2022/09/08 12:45:17;;;;;;;55.83;52.73;;;;;;;;;;5115031;28;20400;-75
2022/09/08 12:47:52;;;;;;;59.67;56.37;;;;;;;;;;5114694;28;20409;-76
2022/09/08 12:50:22;;;;;;;51.00;48.30;;;;;;;;;;5107769;28;20828;-75
2022/09/08 12:53:05;;;;;;;52.97;50.07;;;;;;;;;;5114506;28;20444;-75
2022/09/08 12:55:35;;;;;;;53.23;50.33;;;;;;;;;;5114966;28;20434;-75
2022/09/08 12:58:04;;;;;;;50.70;48.10;;;;;;;;;;5114587;28;20829;-76
2022/09/08 13:00:34;;;;;;;52.73;49.93;;;;;;;;;;5114509;28;20418;-75
2022/09/08 13:03:23;;;;;;;53.23;50.40;;;;;;;;;;5113432;28;20508;-77
2022/09/08 13:06:23;;;;;;;51.93;48.93;;;;;;;;;;5114724;28;20439;-75
2022/09/08 13:08:58;;;;;;;50.57;47.60;;;;;;;;;;5114246;28;20469;-75
2022/09/08 13:11:31;;;;;;;49.43;46.73;;;;;;;;;;5114385;28;20498;-80
2022/09/08 13:13:59;;;;;;;51.50;48.70;;;;;;;;;;5114695;28;20408;-75
2022/09/08 13:16:35;;;;;;;47.97;45.47;;;;;;;;;;5114176;28;20958;-75
2022/09/08 13:19:09;;;;;;;47.17;44.77;;;;;;;;;;5114018;28;20571;-75
2022/09/08 13:21:54;;;;;;;48.50;45.90;;;;;;;;;;5113271;28;20408;-75
2022/09/08 13:24:29;;;;;;;42.83;40.50;;;;;;;;;;5113453;27;20468;-75
2022/09/08 13:27:03;;;;;;;40.70;38.37;;;;;;;;;;5115029;28;20821;-76
2022/09/08 13:29:54;;;;;;;29.47;27.60;;;;;;;;;;5114168;28;20470;-75
2022/09/08 13:32:35;;;;;;;28.00;26.50;;;;;;;;;;5093462;28;20503;-75
2022/09/08 13:35:08;;;;;;;29.50;27.70;;;;;;;;;;5113664;28;20435;-76
2022/09/08 13:37:53;;;;;;;28.43;26.83;;;;;;;;;;5113738;28;20540;-75
2022/09/08 13:40:29;;;;;;;28.77;27.27;;;;;;;;;;5113899;28;20464;-75
2022/09/08 13:43:03;;;;;;;29.17;27.57;;;;;;;;;;5113688;28;20409;-75
2022/09/08 13:45:35;;;;;;;30.60;28.90;;;;;;;;;;5113872;28;20446;-75
2022/09/08 13:48:12;;;;;;;28.80;27.27;;;;;;;;;;5113389;28;20513;-75
2022/09/08 13:50:52;;;;;;;28.10;26.60;;;;;;;;;;5113909;28;20435;-74
2022/09/08 13:53:31;;;;;;;26.47;24.97;;;;;;;;;;5113733;28;20445;-75
2022/09/08 13:56:04;;;;;;;26.57;25.27;;;;;;;;;;5113811;28;20413;-75
2022/09/08 13:58:34;;;;;;;26.07;24.67;;;;;;;;;;5113311;28;20482;-74
2022/09/08 14:01:04;;;;;;;26.23;24.63;;;;;;;;;;5112923;28;20534;-76
2022/09/08 14:03:32;;;;;;;26.13;24.63;;;;;;;;;;5113419;28;20432;-75
2022/09/08 14:06:01;;;;;;;25.17;23.57;;;;;;;;;;5113255;28;20926;-75
2022/09/08 14:08:31;;;;;;;24.23;22.80;;;;;;;;;;5113102;28;20463;-75
2022/09/08 14:11:14;;;;;;;24.43;23.13;;;;;;;;;;5112787;28;20939;-75
2022/09/08 14:13:42;;;;;;;25.90;24.37;;;;;;;;;;5113077;28;20783;-75
2022/09/08 14:16:24;;;;;;;24.67;23.17;;;;;;;;;;5113524;28;20452;-75
2022/09/08 14:19:12;;;;;;;25.90;24.40;;;;;;;;;;5113419;28;20494;-75
2022/09/08 14:21:47;;;;;;;25.27;23.80;;;;;;;;;;5079389;28;20458;-74
2022/09/08 14:24:29;;;;;;;25.43;24.03;;;;;;;;;;5113071;28;20509;-75
2022/09/08 14:27:01;;;;;;;26.23;24.83;;;;;;;;;;5112851;28;20465;-76
2022/09/08 14:29:50;;;;;;;24.87;23.57;;;;;;;;;;5113423;28;20466;-75
2022/09/08 14:32:26;;;;;;;24.10;22.67;;;;;;;;;;5115932;28;20795;-75
2022/09/08 14:35:04;;;;;;;25.33;23.83;;;;;;;;;;5117532;28;20412;-75
2022/09/08 14:37:32;;;;;;;23.17;21.60;;;;;;;;;;5117341;28;20442;-76
2022/09/08 14:40:04;;;;;;;24.37;23.07;;;;;;;;;;5117162;28;20470;-75
2022/09/08 14:42:47;;;;;;;23.47;22.17;;;;;;;;;;5117437;28;20413;-75
2022/09/08 14:45:22;;;;;;;23.57;22.17;;;;;;;;;;5117296;28;20393;-77
2022/09/08 14:48:07;;;;;;;24.43;23.00;;;;;;;;;;5117304;28;20478;-75
2022/09/08 14:50:47;;;;;;;24.30;22.60;;;;;;;;;;5117273;28;20435;-75
2022/09/08 14:53:31;;;;;;;23.30;22.03;;;;;;;;;;5115656;28;20439;-75
2022/09/08 14:56:02;;;;;;;24.43;22.93;;;;;;;;;;5115803;28;20462;-75